createdAt,value
2019-01-16T00:00:31.600Z,100.00
2019-01-16T00:03:16.895Z,100.00
2019-01-16T00:06:03.048Z,100.00
2019-01-16T00:08:51.285Z,100.00
2019-01-16T00:11:30.412Z,100.00
2019-01-16T00:14:09.313Z,100.00
2019-01-16T00:16:41.924Z,100.00
2019-01-16T00:19:12.311Z,100.00
2019-01-16T00:21:54.492Z,100.00
2019-01-16T00:24:27.672Z,100.00
2019-01-16T00:27:12.773Z,100.00
2019-01-16T00:30:00.555Z,100.00
2019-01-16T00:32:36.573Z,100.00
2019-01-16T00:35:07.811Z,100.00
2019-01-16T00:37:44.315Z,100.00
2019-01-16T00:40:21.528Z,100.00
2019-01-16T00:42:54.728Z,100.00
2019-01-16T00:45:27.885Z,100.00
2019-01-16T00:48:06.838Z,99.88
2019-01-16T00:50:37.345Z,100.00
2019-01-16T00:53:23.462Z,100.00
2019-01-16T00:56:09.620Z,99.64
2019-01-16T00:58:39.869Z,100.00
2019-01-16T01:01:13.077Z,99.75
2019-01-16T01:03:46.388Z,100.00
2019-01-16T01:06:25.762Z,99.88
2019-01-16T01:08:55.954Z,99.99
2019-01-16T01:11:26.083Z,99.80
2019-01-16T01:14:01.912Z,100.00
2019-01-16T01:16:43.448Z,100.00
2019-01-16T01:19:13.696Z,100.00
2019-01-16T01:21:49.477Z,100.00
2019-01-16T01:24:25.425Z,100.00
2019-01-16T01:26:55.639Z,100.00
2019-01-16T01:29:25.734Z,100.00
2019-01-16T01:31:58.939Z,100.00
2019-01-16T01:34:29.347Z,100.00
2019-01-16T01:36:59.550Z,100.00
2019-01-16T01:39:45.324Z,100.00
2019-01-16T01:42:33.693Z,100.00
2019-01-16T01:45:19.071Z,100.00
2019-01-16T01:48:05.079Z,100.00
2019-01-16T01:50:43.693Z,100.00
2019-01-16T01:53:13.957Z,100.00
2019-01-16T01:55:44.570Z,100.00
2019-01-16T01:58:23.442Z,99.96
2019-01-16T02:01:05.534Z,100.00
2019-01-16T02:03:44.661Z,99.99
2019-01-16T02:06:17.653Z,100.00
2019-01-16T02:08:47.946Z,100.00
2019-01-16T02:11:30.291Z,100.00
2019-01-16T02:14:06.356Z,100.00
2019-01-16T02:16:48.456Z,100.00
2019-01-16T02:19:27.189Z,100.00
2019-01-16T02:22:00.450Z,100.00
2019-01-16T02:24:36.301Z,100.00
2019-01-16T02:27:09.363Z,100.00
2019-01-16T02:29:39.477Z,99.92
2019-01-16T02:32:27.502Z,100.00
2019-01-16T02:35:13.748Z,100.00
2019-01-16T02:37:44.007Z,100.00
2019-01-16T02:40:20.420Z,100.00
2019-01-16T02:43:02.684Z,100.00
2019-01-16T02:45:32.970Z,100.00
2019-01-16T02:48:03.020Z,100.00
2019-01-16T02:50:36.330Z,100.00
2019-01-16T02:53:15.562Z,100.00
2019-01-16T02:55:48.083Z,100.00
2019-01-16T02:58:21.311Z,100.00
2019-01-16T03:00:57.477Z,100.00
2019-01-16T03:03:43.623Z,100.00
2019-01-16T03:06:19.562Z,100.00
2019-01-16T03:08:49.859Z,100.00
2019-01-16T03:11:25.570Z,100.00
2019-01-16T03:13:58.791Z,100.00
2019-01-16T03:16:43.871Z,100.00
2019-01-16T03:19:16.807Z,100.00
2019-01-16T03:21:58.618Z,100.00
2019-01-16T03:24:28.858Z,100.00
2019-01-16T03:27:13.981Z,100.00
2019-01-16T03:29:44.223Z,100.00
2019-01-16T03:32:14.364Z,100.00
2019-01-16T03:34:47.599Z,100.00
2019-01-16T03:37:18.085Z,100.00
2019-01-16T03:39:48.280Z,100.00
2019-01-16T03:42:27.322Z,100.00
2019-01-16T03:44:57.413Z,100.00
2019-01-16T03:47:30.421Z,100.00
2019-01-16T03:50:00.541Z,100.00
2019-01-16T03:52:39.613Z,100.00
2019-01-16T03:55:15.598Z,100.00
2019-01-16T03:58:03.719Z,100.00
2019-01-16T04:00:42.654Z,100.00
2019-01-16T04:03:28.865Z,100.00
2019-01-16T04:06:16.976Z,100.00
2019-01-16T04:08:53.020Z,100.00
2019-01-16T04:11:39.102Z,100.00
2019-01-16T04:14:23.912Z,100.00
2019-01-16T04:16:54.142Z,100.00
2019-01-16T04:19:35.893Z,100.00
2019-01-16T04:22:22.379Z,100.00
2019-01-16T04:25:04.557Z,100.00
2019-01-16T04:27:50.901Z,100.00
2019-01-16T04:30:21.161Z,100.00
2019-01-16T04:32:51.580Z,100.00
2019-01-16T04:35:37.973Z,100.00
2019-01-16T04:38:08.158Z,100.00
2019-01-16T04:40:41.079Z,100.00
2019-01-16T04:43:14.125Z,100.00
2019-01-16T04:45:44.239Z,100.00
2019-01-16T04:48:23.058Z,100.00
2019-01-16T04:51:07.848Z,100.00
2019-01-16T04:53:38.070Z,100.00
2019-01-16T04:56:17.336Z,100.00
2019-01-16T04:58:59.379Z,100.00
2019-01-16T05:01:29.573Z,100.00
2019-01-16T05:04:15.889Z,100.00
2019-01-16T05:06:52.344Z,100.00
2019-01-16T05:09:28.138Z,100.00
2019-01-16T05:12:15.921Z,100.00
2019-01-16T05:14:46.164Z,99.87
2019-01-16T05:17:28.288Z,99.07
2019-01-16T05:20:04.180Z,99.21
2019-01-16T05:22:49.661Z,98.62
2019-01-16T05:25:25.869Z,97.97
2019-01-16T05:27:58.985Z,96.78
2019-01-16T05:30:35.247Z,96.64
2019-01-16T05:33:17.251Z,96.35
2019-01-16T05:35:59.332Z,95.81
2019-01-16T05:38:29.506Z,95.41
2019-01-16T05:41:14.609Z,94.96
2019-01-16T05:43:44.838Z,94.64
2019-01-16T05:46:21.096Z,94.21
2019-01-16T05:49:07.293Z,93.83
2019-01-16T05:51:40.234Z,93.94
2019-01-16T05:54:13.192Z,93.90
2019-01-16T05:56:59.604Z,93.26
2019-01-16T05:59:35.581Z,93.50
2019-01-16T06:02:11.671Z,93.84
2019-01-16T06:04:53.696Z,93.22
2019-01-16T06:07:40.151Z,92.59
2019-01-16T06:10:19.170Z,92.38
2019-01-16T06:12:55.397Z,91.06
2019-01-16T06:15:31.611Z,91.65
2019-01-16T06:18:04.575Z,91.73
2019-01-16T06:20:40.800Z,91.53
2019-01-16T06:23:13.883Z,91.11
2019-01-16T06:25:59.957Z,91.15
2019-01-16T06:28:30.147Z,91.28
2019-01-16T06:31:06.630Z,90.80
2019-01-16T06:33:39.599Z,91.16
2019-01-16T06:36:12.557Z,91.93
2019-01-16T06:38:58.898Z,91.64
2019-01-16T06:41:29.075Z,91.82
2019-01-16T06:44:08.042Z,91.90
2019-01-16T06:46:38.138Z,92.19
2019-01-16T06:49:08.481Z,92.12
2019-01-16T06:51:41.191Z,92.23
2019-01-16T06:54:20.471Z,92.89
2019-01-16T06:57:08.545Z,92.85
2019-01-16T06:59:41.565Z,93.80
2019-01-16T07:02:28.126Z,93.30
2019-01-16T07:05:14.601Z,93.28
2019-01-16T07:07:47.595Z,93.84
2019-01-16T07:10:20.452Z,93.98
2019-01-16T07:12:56.559Z,94.22
2019-01-16T07:15:26.767Z,94.09
2019-01-16T07:18:12.982Z,93.67
2019-01-16T07:20:45.619Z,93.94
2019-01-16T07:23:15.715Z,93.76
2019-01-16T07:25:49.058Z,94.02
2019-01-16T07:28:34.035Z,94.13
2019-01-16T07:31:13.087Z,92.95
2019-01-16T07:33:45.981Z,93.49
2019-01-16T07:36:16.213Z,92.96
2019-01-16T07:38:49.082Z,92.79
2019-01-16T07:41:19.208Z,92.97
2019-01-16T07:44:05.059Z,93.04
2019-01-16T07:46:50.896Z,92.91
2019-01-16T07:49:23.792Z,92.28
2019-01-16T07:52:06.122Z,92.49
2019-01-16T07:54:52.762Z,92.21
2019-01-16T07:57:38.817Z,92.06
2019-01-16T08:00:27.731Z,92.24
2019-01-16T08:03:11.848Z,92.46
2019-01-16T08:05:59.676Z,92.30
2019-01-16T08:08:29.822Z,92.14
2019-01-16T08:11:03.155Z,92.37
2019-01-16T08:13:33.389Z,92.32
2019-01-16T08:16:20.985Z,92.73
2019-01-16T08:19:06.070Z,92.71
2019-01-16T08:21:52.471Z,92.22
2019-01-16T08:24:22.803Z,92.15
2019-01-16T08:26:55.987Z,92.31
2019-01-16T08:29:35.170Z,91.90
2019-01-16T08:32:11.746Z,91.99
2019-01-16T08:34:42.150Z,91.67
2019-01-16T08:37:15.241Z,91.16
2019-01-16T08:39:45.434Z,91.22
2019-01-16T08:42:21.517Z,91.31
2019-01-16T08:44:51.733Z,91.28
2019-01-16T08:47:24.949Z,91.17
2019-01-16T08:50:00.940Z,91.13
2019-01-16T08:52:31.031Z,91.05
2019-01-16T08:55:13.215Z,91.08
2019-01-16T08:57:49.354Z,91.39
2019-01-16T09:00:19.657Z,91.37
2019-01-16T09:03:06.481Z,91.74
2019-01-16T09:05:54.826Z,91.60
2019-01-16T09:08:27.360Z,91.67
2019-01-16T09:11:05.325Z,91.78
2019-01-16T09:13:35.578Z,91.79
2019-01-16T09:16:21.045Z,91.91
2019-01-16T09:18:51.248Z,92.37
2019-01-16T09:21:27.310Z,91.69
2019-01-16T09:24:06.297Z,92.13
2019-01-16T09:26:45.393Z,92.19
2019-01-16T09:29:18.198Z,92.12
2019-01-16T09:32:04.386Z,91.96
2019-01-16T09:34:40.332Z,92.09
2019-01-16T09:37:10.575Z,92.23
2019-01-16T09:39:55.378Z,92.32
2019-01-16T09:42:41.835Z,92.18
2019-01-16T09:45:17.752Z,91.80
2019-01-16T09:47:50.782Z,91.71
2019-01-16T09:50:21.095Z,91.50
2019-01-16T09:52:51.335Z,91.53
2019-01-16T09:55:37.763Z,91.60
2019-01-16T09:58:13.558Z,91.87
2019-01-16T10:00:46.739Z,91.93
2019-01-16T10:03:25.415Z,92.14
2019-01-16T10:06:04.555Z,92.50
2019-01-16T10:08:37.436Z,92.89
2019-01-16T10:11:07.631Z,92.58
2019-01-16T10:13:37.922Z,92.10
2019-01-16T10:16:14.399Z,91.82
2019-01-16T10:18:44.613Z,91.90
2019-01-16T10:21:15.205Z,91.23
2019-01-16T10:23:48.712Z,91.12
2019-01-16T10:26:18.974Z,91.01
2019-01-16T10:28:55.000Z,90.85
2019-01-16T10:31:30.786Z,90.58
2019-01-16T10:34:15.944Z,89.98
2019-01-16T10:36:58.280Z,90.12
2019-01-16T10:39:31.483Z,90.35
2019-01-16T10:42:13.584Z,90.04
2019-01-16T10:44:49.868Z,89.80
2019-01-16T10:47:32.103Z,89.97
2019-01-16T10:50:08.060Z,89.94
2019-01-16T10:52:46.919Z,89.82
2019-01-16T10:55:29.039Z,89.17
2019-01-16T10:58:15.130Z,89.19
2019-01-16T11:00:51.112Z,89.30
2019-01-16T11:03:24.133Z,89.22
2019-01-16T11:05:54.234Z,89.46
2019-01-16T11:08:33.439Z,89.63
2019-01-16T11:11:19.566Z,89.73
2019-01-16T11:13:52.531Z,89.54
2019-01-16T11:16:38.833Z,89.72
2019-01-16T11:19:14.851Z,89.76
2019-01-16T11:21:45.056Z,89.51
2019-01-16T11:24:15.480Z,89.20
2019-01-16T11:26:48.567Z,88.74
2019-01-16T11:29:24.755Z,88.85
2019-01-16T11:32:10.805Z,88.50
2019-01-16T11:34:40.998Z,88.50
2019-01-16T11:37:11.291Z,88.22
2019-01-16T11:39:44.230Z,87.94
2019-01-16T11:42:17.066Z,87.83
2019-01-16T11:45:03.451Z,87.49
2019-01-16T11:47:33.881Z,87.29
2019-01-16T11:50:12.470Z,86.80
2019-01-16T11:52:42.793Z,86.63
2019-01-16T11:55:18.957Z,86.38
2019-01-16T11:58:05.291Z,85.83
2019-01-16T12:00:57.478Z,85.88
2019-01-16T12:03:33.691Z,85.74
2019-01-16T12:06:20.107Z,85.91
2019-01-16T12:09:06.361Z,85.82
2019-01-16T12:11:51.591Z,85.63
2019-01-16T12:14:24.739Z,85.39
2019-01-16T12:17:03.601Z,85.49
2019-01-16T12:19:34.273Z,85.39
2019-01-16T12:22:04.555Z,85.47
2019-01-16T12:24:34.780Z,85.52
2019-01-16T12:27:22.854Z,84.72
2019-01-16T12:29:55.757Z,84.66
2019-01-16T12:32:31.688Z,84.67
2019-01-16T12:35:18.111Z,84.81
2019-01-16T12:38:04.237Z,84.53
2019-01-16T12:40:34.474Z,84.26
2019-01-16T12:43:16.891Z,84.43
2019-01-16T12:45:47.112Z,84.36
2019-01-16T12:48:17.204Z,84.19
2019-01-16T12:50:50.101Z,84.56
2019-01-16T12:53:26.182Z,84.45
2019-01-16T12:55:56.338Z,84.69
2019-01-16T12:58:42.534Z,84.90
2019-01-16T13:01:12.680Z,84.99
2019-01-16T13:03:43.205Z,84.81
2019-01-16T13:06:19.640Z,85.03
2019-01-16T13:09:04.759Z,84.89
2019-01-16T13:11:34.959Z,84.88
2019-01-16T13:14:08.460Z,85.31
2019-01-16T13:16:54.571Z,84.96
2019-01-16T13:19:36.312Z,84.74
2019-01-16T13:22:22.792Z,84.64
2019-01-16T13:24:53.292Z,84.47
2019-01-16T13:27:26.338Z,84.63
2019-01-16T13:30:16.823Z,84.44
2019-01-16T13:33:14.355Z,84.37
2019-01-16T13:35:54.933Z,84.34
2019-01-16T13:38:25.227Z,84.35
2019-01-16T13:40:55.363Z,84.61
2019-01-16T13:43:25.526Z,84.36
2019-01-16T13:46:07.501Z,84.72
2019-01-16T13:48:52.570Z,84.72
2019-01-16T13:51:27.588Z,84.73
2019-01-16T13:53:57.778Z,84.76
2019-01-16T13:56:53.124Z,84.84
2019-01-16T13:59:26.763Z,84.68
2019-01-16T14:01:57.187Z,84.68
2019-01-16T14:04:33.323Z,84.80
2019-01-16T14:07:15.496Z,85.08
2019-01-16T14:09:51.627Z,84.99
2019-01-16T14:12:27.803Z,84.92
2019-01-16T14:14:58.247Z,85.10
2019-01-16T14:17:40.403Z,85.17
2019-01-16T14:20:13.618Z,84.92
2019-01-16T14:22:52.524Z,85.46
2019-01-16T14:25:24.847Z,85.21
2019-01-16T14:28:03.757Z,85.32
2019-01-16T14:30:43.053Z,85.11
2019-01-16T14:36:21.727Z,85.43
2019-01-16T14:39:07.802Z,85.33
2019-01-16T14:41:54.080Z,85.36
2019-01-16T14:44:33.007Z,85.73
2019-01-16T14:47:20.851Z,85.71
2019-01-16T14:49:56.846Z,85.68
2019-01-16T14:52:32.425Z,85.58
2019-01-16T14:55:06.003Z,85.93
2019-01-16T14:57:34.527Z,85.87
2019-01-16T15:00:10.599Z,86.05
2019-01-16T15:02:57.027Z,86.07
2019-01-16T15:05:29.980Z,86.30
2019-01-16T15:08:15.082Z,86.31
2019-01-16T15:10:57.115Z,86.53
2019-01-16T15:13:30.255Z,86.42
2019-01-16T15:16:00.372Z,86.43
2019-01-16T15:21:06.730Z,86.26
2019-01-16T15:21:56.660Z,86.39
2019-01-16T15:24:32.909Z,86.11
2019-01-16T15:27:12.011Z,86.15
2019-01-16T15:29:51.583Z,85.76
2019-01-16T15:32:33.873Z,85.94
2019-01-16T15:35:04.120Z,86.11
2019-01-16T15:37:34.269Z,85.66
2019-01-16T15:40:04.787Z,85.81
2019-01-16T15:42:35.419Z,85.55
2019-01-16T15:45:06.285Z,85.25
2019-01-16T15:47:56.444Z,85.35
2019-01-16T15:50:42.856Z,85.17
2019-01-16T15:53:13.143Z,84.92
2019-01-16T15:55:52.639Z,84.94
2019-01-16T15:58:25.564Z,85.14
2019-01-16T16:01:01.498Z,85.08
2019-01-16T16:03:37.086Z,85.03
2019-01-16T16:06:07.148Z,85.02
2019-01-16T16:08:40.344Z,84.89
2019-01-16T16:11:13.613Z,84.97
2019-01-16T16:13:52.639Z,84.90
2019-01-16T16:16:22.829Z,84.97
2019-01-16T16:19:11.035Z,84.95
2019-01-16T16:21:41.141Z,84.67
2019-01-16T16:24:17.073Z,84.62
2019-01-16T16:26:47.198Z,84.20
2019-01-16T16:29:26.439Z,84.57
2019-01-16T16:32:02.071Z,84.19
2019-01-16T16:34:48.537Z,84.06
2019-01-16T16:37:34.940Z,83.79
2019-01-16T16:40:21.983Z,83.52
2019-01-16T16:42:52.951Z,83.22
2019-01-16T16:45:41.043Z,82.69
2019-01-16T16:48:25.962Z,83.31
2019-01-16T16:51:17.888Z,82.86
2019-01-16T16:54:04.130Z,82.68
2019-01-16T16:56:52.253Z,82.61
2019-01-16T16:59:22.448Z,82.18
2019-01-16T17:01:52.631Z,82.06
2019-01-16T17:04:31.425Z,82.19
2019-01-16T17:07:17.367Z,82.39
2019-01-16T17:09:50.556Z,81.94
2019-01-16T17:12:32.632Z,81.80
2019-01-16T17:15:08.518Z,82.12
2019-01-16T17:17:54.991Z,81.73
2019-01-16T17:20:39.934Z,81.54
2019-01-16T17:23:12.657Z,81.54
2019-01-16T17:25:54.948Z,81.16
2019-01-16T17:28:34.490Z,81.48
2019-01-16T17:31:07.345Z,81.42
2019-01-16T17:33:40.448Z,81.08
2019-01-16T17:36:10.542Z,80.58
2019-01-16T17:38:43.781Z,80.44
2019-01-16T17:41:29.904Z,80.58
2019-01-16T17:44:00.082Z,79.84
2019-01-16T17:46:42.152Z,79.57
2019-01-16T17:49:12.420Z,79.33
2019-01-16T17:51:48.734Z,79.09
2019-01-16T17:54:21.831Z,79.29
2019-01-16T17:57:00.969Z,78.93
2019-01-16T17:59:37.081Z,78.93
2019-01-16T18:02:22.198Z,78.68
2019-01-16T18:04:55.399Z,78.66
2019-01-16T18:07:25.630Z,78.10
2019-01-16T18:10:07.712Z,78.11
2019-01-16T18:12:40.828Z,78.07
2019-01-16T18:15:27.721Z,77.75
2019-01-16T18:18:18.935Z,77.83
2019-01-16T18:23:53.367Z,77.36
2019-01-16T18:26:36.000Z,77.64
2019-01-16T18:29:09.133Z,77.34
2019-01-16T18:31:48.810Z,77.29
2019-01-16T18:34:19.144Z,76.88
2019-01-16T18:36:58.396Z,77.15
2019-01-16T18:39:36.356Z,76.99
2019-01-16T18:42:16.858Z,76.76
2019-01-16T18:44:47.266Z,76.75
2019-01-16T18:47:20.129Z,77.04
2019-01-16T18:50:08.285Z,76.84
2019-01-16T18:52:56.491Z,76.96
2019-01-16T18:55:26.678Z,76.89
2019-01-16T18:57:59.569Z,76.80
2019-01-16T19:00:29.723Z,76.50
2019-01-16T19:03:05.679Z,76.65
2019-01-16T19:05:41.905Z,76.55
2019-01-16T19:08:27.756Z,76.78
2019-01-16T19:10:58.311Z,76.76
2019-01-16T19:13:31.229Z,75.86
2019-01-16T19:16:01.480Z,76.35
2019-01-16T19:18:31.668Z,76.12
2019-01-16T19:21:01.846Z,76.12
2019-01-16T19:23:44.250Z,76.29
2019-01-16T19:26:17.457Z,76.15
2019-01-16T19:29:02.557Z,76.29
2019-01-16T19:31:36.098Z,76.04
2019-01-16T19:34:12.274Z,76.20
2019-01-16T19:36:45.389Z,75.68
2019-01-16T19:39:15.663Z,75.73
2019-01-16T19:42:00.900Z,76.13
2019-01-16T19:44:33.877Z,75.76
2019-01-16T19:47:04.942Z,75.60
2019-01-16T19:49:40.721Z,76.00
2019-01-16T19:52:11.257Z,75.78
2019-01-16T19:54:57.634Z,75.76
2019-01-16T19:57:43.873Z,75.69
2019-01-16T20:00:33.180Z,75.21
2019-01-16T20:03:03.358Z,75.35
2019-01-16T20:05:41.144Z,75.08
2019-01-16T20:08:16.740Z,75.31
2019-01-16T20:10:46.999Z,75.04
2019-01-16T20:13:48.015Z,75.40
2019-01-16T20:16:20.970Z,74.89
2019-01-16T20:19:00.050Z,75.10
2019-01-16T20:21:30.378Z,74.63
2019-01-16T20:24:13.852Z,75.11
2019-01-16T20:26:50.737Z,74.96
2019-01-16T20:29:21.007Z,75.11
2019-01-16T20:31:54.289Z,74.68
2019-01-16T20:34:29.981Z,75.00
2019-01-16T20:37:14.934Z,74.68
2019-01-16T20:39:50.957Z,75.22
2019-01-16T20:42:32.829Z,75.00
2019-01-16T20:45:14.929Z,75.04
2019-01-16T20:47:56.894Z,75.04
2019-01-16T20:50:27.079Z,75.34
2019-01-16T20:53:00.075Z,75.47
2019-01-16T20:55:30.370Z,75.15
2019-01-16T20:58:03.452Z,75.21
2019-01-16T21:00:49.605Z,75.53
2019-01-16T21:03:31.919Z,75.65
2019-01-16T21:06:02.184Z,75.85
2019-01-16T21:08:41.263Z,75.87
2019-01-16T21:11:11.388Z,75.72
2019-01-16T21:13:47.782Z,75.88
2019-01-16T21:16:20.794Z,76.12
2019-01-16T21:18:53.894Z,75.95
2019-01-16T21:21:38.926Z,76.14
2019-01-16T21:24:15.205Z,76.57
2019-01-16T21:26:54.665Z,76.70
2019-01-16T21:29:25.145Z,76.58
2019-01-16T21:31:55.399Z,76.95
2019-01-16T21:34:25.710Z,77.12
2019-01-16T21:36:56.874Z,77.37
2019-01-16T21:39:27.098Z,77.47
2019-01-16T21:42:00.268Z,77.94
2019-01-16T21:44:33.592Z,78.27
2019-01-16T21:47:21.460Z,78.07
2019-01-16T21:49:54.914Z,78.41
2019-01-16T21:52:25.259Z,78.92
2019-01-16T21:54:55.586Z,79.17
2019-01-16T21:57:25.803Z,79.32
2019-01-16T22:00:01.784Z,79.64
2019-01-16T22:02:50.101Z,79.83
2019-01-16T22:05:26.239Z,79.89
2019-01-16T22:08:12.574Z,79.70
2019-01-16T22:10:57.814Z,79.97
2019-01-16T22:13:30.681Z,80.43
2019-01-16T22:16:17.310Z,80.50
2019-01-16T22:18:56.622Z,80.58
2019-01-16T22:21:44.645Z,80.57
2019-01-16T22:24:17.436Z,80.76
2019-01-16T22:26:50.484Z,80.95
2019-01-16T22:29:26.266Z,81.27
2019-01-16T22:31:58.938Z,81.83
2019-01-16T22:34:45.727Z,81.82
2019-01-16T22:37:18.655Z,82.19
2019-01-16T22:39:54.776Z,82.29
2019-01-16T22:42:27.524Z,82.29
2019-01-16T22:45:03.139Z,82.44
2019-01-16T22:47:33.599Z,82.55
2019-01-16T22:50:19.450Z,82.50
2019-01-16T22:53:05.769Z,82.45
2019-01-16T22:55:47.851Z,82.39
2019-01-16T22:58:26.947Z,82.64
2019-01-16T23:01:09.558Z,82.49
2019-01-16T23:03:57.727Z,82.48
2019-01-16T23:06:43.875Z,82.65
2019-01-16T23:09:29.884Z,82.64
2019-01-16T23:12:02.898Z,82.30
2019-01-16T23:14:44.934Z,82.50
2019-01-16T23:17:31.505Z,82.81
2019-01-16T23:20:11.013Z,82.39
2019-01-16T23:22:41.470Z,82.79
2019-01-16T23:25:17.970Z,83.23
2019-01-16T23:28:04.404Z,83.06
2019-01-16T23:30:40.525Z,83.04
2019-01-16T23:33:11.871Z,83.32
2019-01-16T23:35:54.142Z,83.06
2019-01-16T23:38:30.104Z,83.35
2019-01-16T23:41:18.452Z,83.26
2019-01-16T23:43:51.272Z,83.55
2019-01-16T23:46:24.498Z,83.46
2019-01-16T23:49:09.845Z,83.55
2019-01-16T23:51:42.683Z,83.67
2019-01-16T23:54:12.805Z,83.70
2019-01-16T23:56:57.562Z,83.87
2019-01-16T23:59:30.428Z,83.77
